Time;durP1;ratioP1;P1;durP2;ratioP2;P2;SDS_P1;SDS_P2;PMS_P1;PMS_P2;Temp;Humidity;BMP_temperature;BMP_pressure;BME280_temperature;BME280_humidity;BME280_pressure;Samples;Min_cycle;Max_cycle;Signal;HPM_P1;HPM_P2
2022/04/19 00:00:41;;;;;;;1.67;0.80;;;;;;;;;;20894339;28;20205;-80
2022/04/19 00:10:43;;;;;;;1.90;1.00;;;;;;;;;;20904843;28;20218;-80
2022/04/19 00:20:45;;;;;;;0.90;0.67;;;;;;;;;;20887844;28;20233;-80
2022/04/19 00:30:47;;;;;;;1.20;0.80;;;13.40;99.90;;;;;;20940244;28;20288;-80
2022/04/19 00:40:49;;;;;;;1.63;0.70;;;;;;;;;;20952236;28;20216;-80
2022/04/19 00:50:51;;;;;;;1.13;0.70;;;;;;;;;;20991669;28;20217;-78
2022/04/19 01:00:53;;;;;;;2.80;0.80;;;;;;;;;;20982945;28;20274;-79
2022/04/19 01:21:48;;;;;;;0.90;0.60;;;;;;;;;;20882173;28;20279;-79
2022/04/19 01:31:55;;;;;;;1.67;1.00;;;;;;;;;;20898717;28;20218;-80
2022/04/19 01:41:58;;;;;;;1.10;0.70;;;;;;;;;;20865220;28;20283;-79
2022/04/19 01:52:01;;;;;;;1.50;0.97;;;;;;;;;;20896487;28;20202;-79
2022/04/19 02:02:03;;;;;;;1.10;0.73;;;;;;;;;;20878672;28;20249;-79
2022/04/19 02:12:05;;;;;;;0.80;0.60;;;;;;;;;;20895063;28;20222;-78
2022/04/19 02:22:28;;;;;;;1.00;0.67;;;12.20;99.90;;;;;;20895558;28;20780;-80
2022/04/19 02:32:30;;;;;;;2.00;1.00;;;;;;;;;;20892325;28;20218;-79
2022/04/19 02:42:31;;;;;;;1.60;0.60;;;;;;;;;;20873357;28;20905;-79
2022/04/19 02:52:33;;;;;;;1.17;0.60;;;;;;;;;;20859138;28;20240;-79
2022/04/19 03:02:36;;;;;;;0.50;0.30;;;;;;;;;;20874374;28;20264;-79
2022/04/19 03:12:39;;;;;;;0.83;0.50;;;;;;;;;;20874616;28;20206;-79
2022/04/19 03:33:18;;;;;;;0.73;0.50;;;;;;;;;;20878234;28;20214;-79
2022/04/19 03:43:20;;;;;;;0.83;0.60;;;;;;;;;;20893600;28;20233;-82
2022/04/19 03:53:22;;;;;;;0.50;0.30;;;;;;;;;;20934584;28;20895;-78
2022/04/19 04:03:23;;;;;;;0.60;0.53;;;;;;;;;;20872243;28;20639;-79
2022/04/19 04:13:25;;;;;;;1.50;0.70;;;;;;;;;;20887994;28;20568;-80
2022/04/19 04:23:30;;;;;;;3.10;0.47;;;;;;;;;;20887440;28;20222;-78
2022/04/19 04:33:36;;;;;;;0.60;0.43;;;;;;;;;;20887058;28;20217;-79
2022/04/19 04:43:40;;;;;;;1.03;0.60;;;;;;;;;;20917983;28;20602;-79
2022/04/19 04:53:42;;;;;;;1.83;0.87;;;;;;;;;;20899653;28;20699;-80
2022/04/19 05:03:53;;;;;;;1.57;0.70;;;;;;;;;;20885198;28;20295;-81
2022/04/19 05:13:55;;;;;;;2.50;0.83;;;10.50;99.90;;;;;;20866630;28;20222;-78
2022/04/19 05:23:57;;;;;;;1.50;0.77;;;10.70;99.90;;;;;;20898772;28;20233;-79
2022/04/19 05:34:00;;;;;;;1.10;0.60;;;;;;;;;;20881932;28;20198;-79
2022/04/19 05:44:03;;;;;;;1.10;0.70;;;;;;;;;;20862786;28;20287;-79
2022/04/19 05:54:05;;;;;;;1.23;0.80;;;;;;;;;;20880490;28;20573;-79
2022/04/19 06:14:28;;;;;;;2.40;1.27;;;;;;;;;;20905922;28;20291;-80
2022/04/19 06:24:31;;;;;;;1.30;0.80;;;;;;;;;;20899291;28;20213;-82
2022/04/19 06:34:33;;;;;;;1.90;1.00;;;;;;;;;;20930214;28;20205;-81
2022/04/19 06:44:47;;;;;;;1.37;0.87;;;;;;;;;;20879116;28;20229;-79
2022/04/19 06:55:08;;;;;;;1.37;0.90;;;12.70;99.90;;;;;;21247113;27;21103;-66
2022/04/19 07:05:11;;;;;;;1.90;0.90;;;13.00;99.90;;;;;;21185497;27;20211;-66
2022/04/19 07:15:15;;;;;;;1.27;0.67;;;;;;;;;;21207001;28;20233;-66
2022/04/19 07:35:44;;;;;;;1.60;0.80;;;14.10;99.90;;;;;;21209561;27;20211;-66
2022/04/19 07:45:46;;;;;;;2.30;1.20;;;;;;;;;;21194752;27;20691;-66
2022/04/19 07:55:48;;;;;;;3.27;1.13;;;;;;;;;;21254304;27;20214;-66
2022/04/19 08:05:51;;;;;;;1.70;0.90;;;;;;;;;;21215702;27;20203;-67
2022/04/19 08:15:53;;;;;;;1.97;0.80;;;;;;;;;;21200665;27;20264;-67
2022/04/19 08:25:55;;;;;;;2.33;1.10;;;;;;;;;;21217734;27;20203;-67
2022/04/19 08:35:58;;;;;;;1.27;0.90;;;;;;;;;;21194131;27;20219;-67
2022/04/19 08:46:02;;;;;;;1.23;0.70;;;15.80;97.80;;;;;;21198240;27;20607;-67
2022/04/19 09:06:56;;;;;;;1.53;0.90;;;16.20;90.20;;;;;;21200142;27;20568;-67
2022/04/19 09:17:06;;;;;;;1.80;1.20;;;16.70;99.90;;;;;;21188187;27;20210;-68
2022/04/19 09:27:08;;;;;;;2.10;1.20;;;;;;;;;;21191761;27;20210;-67
2022/04/19 09:37:13;;;;;;;2.37;1.10;;;17.20;88.00;;;;;;21194538;27;20268;-67
2022/04/19 09:47:15;;;;;;;1.93;1.20;;;;;;;;;;21192070;27;20689;-67
2022/04/19 09:57:17;;;;;;;1.53;0.97;;;;;;;;;;21223606;27;20273;-67
2022/04/19 10:17:40;;;;;;;2.07;1.20;;;18.60;90.60;;;;;;21210877;27;20322;-68
2022/04/19 10:27:43;;;;;;;2.87;1.40;;;;;;;;;;21100818;28;20220;-68
2022/04/19 10:37:46;;;;;;;1.87;1.10;;;;;;;;;;21107670;28;20261;-68
2022/04/19 10:47:51;;;;;;;2.20;1.37;;;19.30;81.60;;;;;;21221616;27;20240;-68
2022/04/19 10:58:24;;;;;;;1.50;0.80;;;;;;;;;;21189027;28;20211;-68
2022/04/19 11:08:27;;;;;;;2.07;1.40;;;;;;;;;;21205738;28;20745;-68
2022/04/19 11:18:30;;;;;;;2.23;1.30;;;20.10;84.40;;;;;;21189204;28;20207;-68
2022/04/19 11:28:32;;;;;;;2.87;1.57;;;;;;;;;;21188440;28;20216;-68
2022/04/19 11:38:48;;;;;;;2.60;1.30;;;20.50;85.40;;;;;;21215985;27;20207;-69
2022/04/19 11:48:50;;;;;;;1.60;1.10;;;;;;;;;;21164710;27;20219;-68
2022/04/19 11:58:52;;;;;;;1.80;1.10;;;;;;;;;;21176113;22;20223;-65
2022/04/19 12:08:54;;;;;;;1.30;0.70;;;;;;;;;;20849419;28;20778;-65
2022/04/19 12:18:58;;;;;;;2.10;1.10;;;21.40;82.00;;;;;;20865506;28;20685;-67
2022/04/19 12:29:12;;;;;;;1.80;0.97;;;21.30;81.40;;;;;;20880134;28;20220;-66
2022/04/19 12:39:23;;;;;;;2.37;0.97;;;21.40;82.80;;;;;;20880680;28;20277;-66
2022/04/19 12:49:29;;;;;;;1.63;1.00;;;;;;;;;;20913560;28;20281;-66
2022/04/19 12:59:32;;;;;;;1.93;1.00;;;;;;;;;;20879422;28;20592;-66
2022/04/19 13:19:54;;;;;;;2.80;1.70;;;;;;;;;;20890150;28;20232;-66
2022/04/19 13:29:56;;;;;;;3.03;1.60;;;;;;;;;;20844993;28;20227;-66
2022/04/19 13:39:59;;;;;;;2.17;1.10;;;;;;;;;;20875165;28;20236;-66
2022/04/19 13:50:00;;;;;;;1.80;1.17;;;;;;;;;;20893100;28;20752;-66
2022/04/19 14:00:03;;;;;;;1.93;1.00;;;22.00;77.40;;;;;;20886434;28;20217;-66
2022/04/19 14:10:14;;;;;;;2.30;1.30;;;;;;;;;;20882095;28;20223;-66
2022/04/19 14:20:16;;;;;;;3.50;1.60;;;;;;;;;;20824326;28;20637;-66
2022/04/19 14:40:39;;;;;;;2.50;1.60;;;;;;;;;;20873447;28;20477;-66
2022/04/19 15:01:01;;;;;;;2.33;1.43;;;;;;;;;;20871529;28;20232;-66
2022/04/19 15:11:06;;;;;;;2.70;1.30;;;;;;;;;;20880868;28;20290;-66
2022/04/19 15:21:08;;;;;;;2.50;1.60;;;;;;;;;;20875512;28;20212;-66
2022/04/19 15:31:11;;;;;;;2.20;1.17;;;;;;;;;;20882051;28;20754;-66
2022/04/19 15:41:13;;;;;;;3.67;1.10;;;22.30;73.40;;;;;;20873432;28;20295;-66
2022/04/19 15:51:18;;;;;;;2.27;1.20;;;22.20;66.30;;;;;;20876486;28;20263;-66
2022/04/19 16:01:20;;;;;;;3.67;1.10;;;;;;;;;;20898763;28;20228;-66
2022/04/19 16:11:22;;;;;;;1.27;0.83;;;;;;;;;;20828454;28;20232;-66
2022/04/19 16:31:44;;;;;;;0.73;0.50;;;;;;;;;;20832729;28;20279;-66
2022/04/19 16:41:46;;;;;;;1.80;0.80;;;;;;;;;;20849015;28;20286;-65
2022/04/19 16:51:49;;;;;;;0.87;0.60;;;;;;;;;;20827281;28;20286;-66
2022/04/19 17:01:55;;;;;;;1.10;0.60;;;;;;;;;;20868092;28;20266;-66
2022/04/19 17:11:57;;;;;;;1.10;0.80;;;;;;;;;;20862157;28;20232;-66
2022/04/19 17:21:59;;;;;;;2.93;0.93;;;;;;;;;;20844177;28;20282;-66
2022/04/19 17:32:01;;;;;;;0.83;0.57;;;;;;;;;;20849960;28;20633;-66
2022/04/19 17:42:03;;;;;;;0.67;0.43;;;;;;;;;;20890428;28;20268;-66
2022/04/19 18:02:25;;;;;;;0.90;0.50;;;;;;;;;;20909199;22;20230;-66
2022/04/19 18:12:28;;;;;;;1.03;0.40;;;;;;;;;;21016062;28;20229;-66
2022/04/19 18:32:50;;;;;;;0.40;0.37;;;19.20;83.50;;;;;;21035851;28;20225;-66
2022/04/19 18:42:52;;;;;;;0.50;0.30;;;;;;;;;;21027730;28;20240;-66
2022/04/19 18:52:54;;;;;;;1.40;0.50;;;;;;;;;;21011816;28;20218;-66
2022/04/19 19:02:56;;;;;;;2.20;0.57;;;;;;;;;;21034841;28;20246;-66
2022/04/19 19:12:59;;;;;;;2.47;0.30;;;;;;;;;;21052640;28;20270;-66
2022/04/19 19:23:01;;;;;;;1.60;0.40;;;;;;;;;;21011756;28;20224;-66
2022/04/19 19:33:03;;;;;;;0.60;0.50;;;;;;;;;;21017638;28;20224;-66
2022/04/19 19:43:06;;;;;;;0.30;0.30;;;;;;;;;;21005250;28;20210;-66
2022/04/19 19:53:07;;;;;;;0.43;0.30;;;;;;;;;;21005237;28;20270;-66
2022/04/19 20:03:09;;;;;;;0.50;0.40;;;;;;;;;;21009964;28;20224;-66
2022/04/19 20:13:11;;;;;;;0.20;0.20;;;;;;;;;;21027419;28;20285;-67
2022/04/19 20:23:13;;;;;;;0.60;0.30;;;;;;;;;;21031234;28;20258;-66
2022/04/19 20:33:16;;;;;;;0.40;0.30;;;17.70;78.60;;;;;;21048574;28;20278;-66
2022/04/19 20:43:18;;;;;;;0.27;0.27;;;;;;;;;;21031074;28;20266;-66
2022/04/19 20:53:20;;;;;;;0.30;0.30;;;;;;;;;;20997166;28;20703;-66
2022/04/19 21:03:22;;;;;;;0.40;0.40;;;;;;;;;;21022378;28;20291;-66
2022/04/19 21:13:24;;;;;;;0.67;0.30;;;;;;;;;;21022000;28;20590;-66
2022/04/19 21:23:25;;;;;;;0.43;0.40;;;;;;;;;;21038046;28;20250;-66
2022/04/19 21:33:28;;;;;;;0.40;0.40;;;;;;;;;;21019895;28;20239;-66
2022/04/19 21:43:32;;;;;;;1.40;0.73;;;;;;;;;;21035869;28;20221;-66
2022/04/19 21:53:35;;;;;;;0.80;0.50;;;;;;;;;;21026070;28;20857;-66
2022/04/19 22:03:38;;;;;;;1.23;0.60;;;;;;;;;;21032569;28;20257;-66
2022/04/19 22:13:40;;;;;;;2.03;0.57;;;;;;;;;;21002005;28;20630;-66
2022/04/19 22:23:42;;;;;;;0.60;0.40;;;16.10;86.70;;;;;;21017124;28;20724;-66
2022/04/19 22:33:44;;;;;;;0.60;0.60;;;;;;;;;;21020674;28;20596;-66
2022/04/19 22:43:46;;;;;;;1.17;0.63;;;;;;;;;;21038469;28;20258;-66
2022/04/19 22:53:47;;;;;;;1.27;0.60;;;;;;;;;;21020998;28;20213;-66
2022/04/19 23:03:49;;;;;;;0.40;0.40;;;;;;;;;;21037666;28;20675;-66
2022/04/19 23:13:51;;;;;;;1.00;0.70;;;;;;;;;;21022945;28;20220;-66
2022/04/19 23:23:53;;;;;;;1.80;0.80;;;;;;;;;;21039233;28;20212;-66
2022/04/19 23:33:55;;;;;;;0.60;0.53;;;;;;;;;;21030999;28;20285;-66
2022/04/19 23:43:57;;;;;;;0.30;0.30;;;;;;;;;;21053580;28;20228;-66
2022/04/19 23:53:59;;;;;;;0.90;0.30;;;;;;;;;;21052177;28;20281;-66
